sensor_id;sensor_type;location;lat;lon;timestamp;P1;durP1;ratioP1;P2;durP2;ratioP2
12163;SDS011;6145;50.192;10.064;2023-11-21T12:08:43;4.93;;;2.30;;
12163;SDS011;6145;50.192;10.064;2023-11-21T12:11:20;3.67;;;2.40;;
12163;SDS011;6145;50.192;10.064;2023-11-21T12:13:56;5.07;;;2.67;;
12163;SDS011;6145;50.192;10.064;2023-11-21T12:16:29;6.17;;;2.37;;
12163;SDS011;6145;50.192;10.064;2023-11-21T12:18:59;3.67;;;2.20;;
12163;SDS011;6145;50.192;10.064;2023-11-21T12:21:26;3.80;;;2.50;;
12163;SDS011;6145;50.192;10.064;2023-11-21T12:23:55;4.37;;;2.77;;
12163;SDS011;6145;50.192;10.064;2023-11-21T12:26:22;5.77;;;2.70;;
12163;SDS011;6145;50.192;10.064;2023-11-21T12:28:51;5.30;;;2.50;;
12163;SDS011;6145;50.192;10.064;2023-11-21T12:31:20;6.33;;;2.67;;
12163;SDS011;6145;50.192;10.064;2023-11-21T12:33:47;6.10;;;2.43;;
12163;SDS011;6145;50.192;10.064;2023-11-21T12:36:14;6.23;;;2.80;;
12163;SDS011;6145;50.192;10.064;2023-11-21T12:38:42;7.93;;;3.10;;
12163;SDS011;6145;50.192;10.064;2023-11-21T12:41:10;3.37;;;2.27;;
12163;SDS011;6145;50.192;10.064;2023-11-21T16:05:48;2.40;;;2.20;;
12163;SDS011;6145;50.192;10.064;2023-11-21T16:08:16;4.27;;;2.17;;
12163;SDS011;6145;50.192;10.064;2023-11-21T16:10:43;2.90;;;1.87;;
12163;SDS011;6145;50.192;10.064;2023-11-21T16:13:10;2.57;;;2.07;;
12163;SDS011;6145;50.192;10.064;2023-11-21T16:15:38;2.17;;;1.97;;
12163;SDS011;6145;50.192;10.064;2023-11-21T16:18:05;2.83;;;2.00;;
12163;SDS011;6145;50.192;10.064;2023-11-21T16:20:32;2.33;;;1.77;;
12163;SDS011;6145;50.192;10.064;2023-11-21T16:23:00;2.10;;;1.90;;
12163;SDS011;6145;50.192;10.064;2023-11-21T16:25:27;2.23;;;1.93;;
12163;SDS011;6145;50.192;10.064;2023-11-21T16:27:54;3.50;;;2.43;;
12163;SDS011;6145;50.192;10.064;2023-11-21T16:30:23;4.77;;;2.53;;
12163;SDS011;6145;50.192;10.064;2023-11-21T16:32:51;4.83;;;2.40;;
12163;SDS011;6145;50.192;10.064;2023-11-21T16:35:19;2.13;;;1.93;;
12163;SDS011;6145;50.192;10.064;2023-11-21T16:37:46;4.50;;;2.10;;
12163;SDS011;6145;50.192;10.064;2023-11-21T16:40:14;2.33;;;2.10;;
12163;SDS011;6145;50.192;10.064;2023-11-21T16:42:44;4.13;;;2.30;;
12163;SDS011;6145;50.192;10.064;2023-11-21T16:45:11;3.17;;;2.23;;
12163;SDS011;6145;50.192;10.064;2023-11-21T16:47:37;3.47;;;1.83;;
12163;SDS011;6145;50.192;10.064;2023-11-21T16:50:05;2.50;;;1.93;;
12163;SDS011;6145;50.192;10.064;2023-11-21T16:52:33;2.77;;;2.00;;
12163;SDS011;6145;50.192;10.064;2023-11-21T16:55:00;2.37;;;2.17;;
12163;SDS011;6145;50.192;10.064;2023-11-21T16:57:28;3.50;;;2.30;;
12163;SDS011;6145;50.192;10.064;2023-11-21T16:59:55;2.47;;;1.90;;
12163;SDS011;6145;50.192;10.064;2023-11-21T17:02:22;3.83;;;2.30;;
12163;SDS011;6145;50.192;10.064;2023-11-21T17:04:48;3.37;;;3.03;;
12163;SDS011;6145;50.192;10.064;2023-11-21T17:07:15;2.83;;;2.13;;
12163;SDS011;6145;50.192;10.064;2023-11-21T17:09:45;2.83;;;2.47;;
12163;SDS011;6145;50.192;10.064;2023-11-21T17:12:12;4.10;;;2.40;;
12163;SDS011;6145;50.192;10.064;2023-11-21T17:14:41;3.20;;;2.00;;
12163;SDS011;6145;50.192;10.064;2023-11-21T17:17:09;3.40;;;2.37;;
12163;SDS011;6145;50.192;10.064;2023-11-21T17:19:38;2.33;;;2.23;;
12163;SDS011;6145;50.192;10.064;2023-11-21T17:22:06;2.77;;;2.50;;
12163;SDS011;6145;50.192;10.064;2023-11-21T17:24:33;2.13;;;1.83;;
12163;SDS011;6145;50.192;10.064;2023-11-21T17:27:01;4.03;;;3.03;;
12163;SDS011;6145;50.192;10.064;2023-11-21T17:29:28;3.00;;;2.30;;
12163;SDS011;6145;50.192;10.064;2023-11-21T17:31:56;3.03;;;2.30;;
12163;SDS011;6145;50.192;10.064;2023-11-21T17:34:23;3.47;;;2.60;;
12163;SDS011;6145;50.192;10.064;2023-11-21T17:36:50;3.03;;;2.73;;
12163;SDS011;6145;50.192;10.064;2023-11-21T17:39:17;3.20;;;2.37;;
12163;SDS011;6145;50.192;10.064;2023-11-21T17:41:44;2.77;;;2.43;;
12163;SDS011;6145;50.192;10.064;2023-11-21T17:44:10;4.07;;;2.27;;
12163;SDS011;6145;50.192;10.064;2023-11-21T17:46:38;1.60;;;1.50;;
12163;SDS011;6145;50.192;10.064;2023-11-21T17:49:06;1.40;;;1.30;;
12163;SDS011;6145;50.192;10.064;2023-11-21T17:51:36;1.00;;;1.00;;
12163;SDS011;6145;50.192;10.064;2023-11-21T17:54:04;1.53;;;1.00;;
12163;SDS011;6145;50.192;10.064;2023-11-21T17:56:31;0.90;;;0.90;;
12163;SDS011;6145;50.192;10.064;2023-11-21T17:58:58;0.97;;;0.97;;
12163;SDS011;6145;50.192;10.064;2023-11-21T18:01:25;2.60;;;1.10;;
12163;SDS011;6145;50.192;10.064;2023-11-21T18:03:58;1.20;;;1.10;;
12163;SDS011;6145;50.192;10.064;2023-11-21T18:06:26;1.17;;;0.97;;
12163;SDS011;6145;50.192;10.064;2023-11-21T18:08:53;1.40;;;1.30;;
12163;SDS011;6145;50.192;10.064;2023-11-21T18:11:20;1.20;;;1.07;;
12163;SDS011;6145;50.192;10.064;2023-11-21T18:13:47;0.87;;;0.87;;
12163;SDS011;6145;50.192;10.064;2023-11-21T18:16:14;1.40;;;1.30;;
12163;SDS011;6145;50.192;10.064;2023-11-21T18:18:40;1.30;;;1.20;;
12163;SDS011;6145;50.192;10.064;2023-11-21T18:21:07;4.00;;;1.67;;
12163;SDS011;6145;50.192;10.064;2023-11-21T18:23:36;2.40;;;1.83;;
12163;SDS011;6145;50.192;10.064;2023-11-21T18:26:03;1.83;;;1.60;;
12163;SDS011;6145;50.192;10.064;2023-11-21T18:28:30;1.80;;;1.63;;
12163;SDS011;6145;50.192;10.064;2023-11-21T18:30:57;2.30;;;1.87;;
12163;SDS011;6145;50.192;10.064;2023-11-21T18:33:24;2.13;;;1.93;;
12163;SDS011;6145;50.192;10.064;2023-11-21T18:35:51;2.43;;;2.00;;
12163;SDS011;6145;50.192;10.064;2023-11-21T18:38:17;1.27;;;1.17;;
12163;SDS011;6145;50.192;10.064;2023-11-21T18:40:45;2.33;;;1.90;;
12163;SDS011;6145;50.192;10.064;2023-11-21T18:43:12;2.77;;;2.10;;
12163;SDS011;6145;50.192;10.064;2023-11-21T18:45:39;3.67;;;2.27;;
12163;SDS011;6145;50.192;10.064;2023-11-21T18:48:06;2.23;;;2.03;;
12163;SDS011;6145;50.192;10.064;2023-11-21T18:50:36;2.53;;;2.00;;
12163;SDS011;6145;50.192;10.064;2023-11-21T18:53:03;3.20;;;2.07;;
12163;SDS011;6145;50.192;10.064;2023-11-21T18:55:30;3.43;;;2.00;;
12163;SDS011;6145;50.192;10.064;2023-11-21T18:57:58;3.00;;;2.33;;
12163;SDS011;6145;50.192;10.064;2023-11-21T19:00:24;2.97;;;2.20;;
12163;SDS011;6145;50.192;10.064;2023-11-21T19:02:52;3.40;;;2.40;;
12163;SDS011;6145;50.192;10.064;2023-11-21T19:05:19;2.60;;;2.20;;
12163;SDS011;6145;50.192;10.064;2023-11-21T19:07:45;2.27;;;2.07;;
12163;SDS011;6145;50.192;10.064;2023-11-21T19:10:12;2.33;;;2.13;;
12163;SDS011;6145;50.192;10.064;2023-11-21T19:12:39;2.90;;;2.50;;
12163;SDS011;6145;50.192;10.064;2023-11-21T19:15:07;1.80;;;1.70;;
12163;SDS011;6145;50.192;10.064;2023-11-21T19:17:34;2.20;;;2.00;;
12163;SDS011;6145;50.192;10.064;2023-11-21T19:20:03;2.77;;;2.33;;
12163;SDS011;6145;50.192;10.064;2023-11-21T19:22:30;2.90;;;2.10;;
12163;SDS011;6145;50.192;10.064;2023-11-21T19:24:58;2.83;;;1.77;;
12163;SDS011;6145;50.192;10.064;2023-11-21T19:27:25;2.53;;;1.83;;
12163;SDS011;6145;50.192;10.064;2023-11-21T19:29:52;4.27;;;2.03;;
12163;SDS011;6145;50.192;10.064;2023-11-21T19:32:20;4.73;;;2.30;;
12163;SDS011;6145;50.192;10.064;2023-11-21T19:34:48;2.33;;;1.90;;
12163;SDS011;6145;50.192;10.064;2023-11-21T19:37:15;2.00;;;1.90;;
12163;SDS011;6145;50.192;10.064;2023-11-21T19:39:42;1.80;;;1.70;;
12163;SDS011;6145;50.192;10.064;2023-11-21T19:42:09;1.93;;;1.60;;
12163;SDS011;6145;50.192;10.064;2023-11-21T19:44:36;1.77;;;1.67;;
12163;SDS011;6145;50.192;10.064;2023-11-21T19:47:03;1.90;;;1.70;;
12163;SDS011;6145;50.192;10.064;2023-11-21T19:49:32;1.63;;;1.53;;
12163;SDS011;6145;50.192;10.064;2023-11-21T19:51:59;2.97;;;2.40;;
12163;SDS011;6145;50.192;10.064;2023-11-21T19:54:26;2.47;;;2.20;;
12163;SDS011;6145;50.192;10.064;2023-11-21T19:56:54;2.60;;;1.77;;
12163;SDS011;6145;50.192;10.064;2023-11-21T19:59:21;2.90;;;2.70;;
12163;SDS011;6145;50.192;10.064;2023-11-21T20:01:48;2.10;;;1.90;;
12163;SDS011;6145;50.192;10.064;2023-11-21T20:04:16;2.23;;;2.03;;
12163;SDS011;6145;50.192;10.064;2023-11-21T20:06:44;2.07;;;1.87;;
12163;SDS011;6145;50.192;10.064;2023-11-21T20:09:13;4.57;;;2.27;;
12163;SDS011;6145;50.192;10.064;2023-11-21T20:11:41;3.07;;;2.20;;
12163;SDS011;6145;50.192;10.064;2023-11-21T20:14:11;2.17;;;1.63;;
12163;SDS011;6145;50.192;10.064;2023-11-21T20:16:38;2.23;;;1.90;;
12163;SDS011;6145;50.192;10.064;2023-11-21T20:19:05;3.40;;;2.30;;
12163;SDS011;6145;50.192;10.064;2023-11-21T20:21:33;4.60;;;2.37;;
12163;SDS011;6145;50.192;10.064;2023-11-21T20:24:01;2.50;;;2.10;;
12163;SDS011;6145;50.192;10.064;2023-11-21T20:26:28;3.67;;;2.37;;
12163;SDS011;6145;50.192;10.064;2023-11-21T20:28:56;2.60;;;1.70;;
12163;SDS011;6145;50.192;10.064;2023-11-21T20:31:23;2.53;;;1.87;;
12163;SDS011;6145;50.192;10.064;2023-11-21T20:33:52;3.00;;;2.70;;
12163;SDS011;6145;50.192;10.064;2023-11-21T20:39:28;4.13;;;2.43;;
12163;SDS011;6145;50.192;10.064;2023-11-21T20:41:55;3.60;;;2.97;;
12163;SDS011;6145;50.192;10.064;2023-11-21T20:44:22;1.87;;;1.73;;
12163;SDS011;6145;50.192;10.064;2023-11-21T20:46:49;2.43;;;1.63;;
12163;SDS011;6145;50.192;10.064;2023-11-21T20:49:18;3.67;;;3.00;;
12163;SDS011;6145;50.192;10.064;2023-11-21T20:51:45;4.37;;;3.17;;
12163;SDS011;6145;50.192;10.064;2023-11-21T20:54:12;4.23;;;3.83;;
12163;SDS011;6145;50.192;10.064;2023-11-21T20:56:40;5.37;;;3.37;;
12163;SDS011;6145;50.192;10.064;2023-11-21T20:59:08;3.67;;;3.00;;
12163;SDS011;6145;50.192;10.064;2023-11-21T21:01:36;4.13;;;3.10;;
12163;SDS011;6145;50.192;10.064;2023-11-21T21:04:03;3.40;;;3.10;;
12163;SDS011;6145;50.192;10.064;2023-11-21T21:06:32;3.50;;;3.20;;
12163;SDS011;6145;50.192;10.064;2023-11-21T21:08:59;3.50;;;3.17;;
12163;SDS011;6145;50.192;10.064;2023-11-21T21:11:27;3.07;;;2.43;;
12163;SDS011;6145;50.192;10.064;2023-11-21T21:13:58;3.10;;;2.40;;
12163;SDS011;6145;50.192;10.064;2023-11-21T21:16:25;3.43;;;3.03;;
12163;SDS011;6145;50.192;10.064;2023-11-21T21:18:52;3.80;;;3.40;;
12163;SDS011;6145;50.192;10.064;2023-11-21T21:21:19;2.83;;;2.63;;
12163;SDS011;6145;50.192;10.064;2023-11-21T21:23:47;3.43;;;2.93;;
12163;SDS011;6145;50.192;10.064;2023-11-21T21:26:15;3.67;;;2.90;;
12163;SDS011;6145;50.192;10.064;2023-11-21T21:28:42;5.53;;;3.20;;
12163;SDS011;6145;50.192;10.064;2023-11-21T21:31:12;5.83;;;3.10;;
12163;SDS011;6145;50.192;10.064;2023-11-21T21:33:40;5.40;;;3.30;;
12163;SDS011;6145;50.192;10.064;2023-11-21T21:36:09;3.27;;;2.90;;
12163;SDS011;6145;50.192;10.064;2023-11-21T21:38:36;4.03;;;3.30;;
12163;SDS011;6145;50.192;10.064;2023-11-21T21:41:04;2.23;;;2.03;;
12163;SDS011;6145;50.192;10.064;2023-11-21T21:43:33;2.83;;;2.53;;
12163;SDS011;6145;50.192;10.064;2023-11-21T21:45:59;10.57;;;1.43;;
12163;SDS011;6145;50.192;10.064;2023-11-21T21:48:33;3.07;;;2.77;;
12163;SDS011;6145;50.192;10.064;2023-11-21T21:51:00;4.07;;;3.07;;
12163;SDS011;6145;50.192;10.064;2023-11-21T21:53:27;3.70;;;2.83;;
12163;SDS011;6145;50.192;10.064;2023-11-21T21:55:54;2.77;;;2.47;;
12163;SDS011;6145;50.192;10.064;2023-11-21T21:58:21;3.17;;;2.83;;
12163;SDS011;6145;50.192;10.064;2023-11-21T22:00:48;2.37;;;1.93;;
12163;SDS011;6145;50.192;10.064;2023-11-21T22:03:15;6.33;;;2.40;;
12163;SDS011;6145;50.192;10.064;2023-11-21T22:05:43;3.33;;;2.70;;
12163;SDS011;6145;50.192;10.064;2023-11-21T22:08:10;3.30;;;2.97;;
12163;SDS011;6145;50.192;10.064;2023-11-21T22:10:37;2.90;;;2.67;;
12163;SDS011;6145;50.192;10.064;2023-11-21T22:13:04;3.20;;;2.90;;
12163;SDS011;6145;50.192;10.064;2023-11-21T22:15:31;10.90;;;3.23;;
12163;SDS011;6145;50.192;10.064;2023-11-21T22:17:58;2.97;;;2.30;;
12163;SDS011;6145;50.192;10.064;2023-11-21T22:20:25;4.10;;;3.27;;
12163;SDS011;6145;50.192;10.064;2023-11-21T22:22:53;3.30;;;2.83;;
12163;SDS011;6145;50.192;10.064;2023-11-21T22:25:20;3.70;;;2.83;;
12163;SDS011;6145;50.192;10.064;2023-11-21T22:27:48;3.80;;;2.90;;
12163;SDS011;6145;50.192;10.064;2023-11-21T22:30:16;3.10;;;2.80;;
12163;SDS011;6145;50.192;10.064;2023-11-21T22:32:43;3.37;;;3.07;;
12163;SDS011;6145;50.192;10.064;2023-11-21T22:35:10;3.13;;;2.77;;
12163;SDS011;6145;50.192;10.064;2023-11-21T22:37:37;3.20;;;2.90;;
12163;SDS011;6145;50.192;10.064;2023-11-21T22:40:06;3.33;;;2.80;;
12163;SDS011;6145;50.192;10.064;2023-11-21T22:42:34;3.03;;;2.73;;
12163;SDS011;6145;50.192;10.064;2023-11-21T22:45:02;4.40;;;3.10;;
12163;SDS011;6145;50.192;10.064;2023-11-21T22:47:32;3.60;;;2.97;;
12163;SDS011;6145;50.192;10.064;2023-11-21T22:49:58;3.10;;;2.80;;
12163;SDS011;6145;50.192;10.064;2023-11-21T22:52:25;3.60;;;2.83;;
12163;SDS011;6145;50.192;10.064;2023-11-21T22:54:52;3.97;;;3.10;;
12163;SDS011;6145;50.192;10.064;2023-11-21T22:57:20;3.97;;;2.90;;
12163;SDS011;6145;50.192;10.064;2023-11-21T22:59:47;3.37;;;2.63;;
12163;SDS011;6145;50.192;10.064;2023-11-21T23:02:15;5.27;;;2.97;;
12163;SDS011;6145;50.192;10.064;2023-11-21T23:04:42;4.47;;;3.20;;
12163;SDS011;6145;50.192;10.064;2023-11-21T23:07:09;6.37;;;3.17;;
12163;SDS011;6145;50.192;10.064;2023-11-21T23:09:36;4.23;;;2.80;;
12163;SDS011;6145;50.192;10.064;2023-11-21T23:12:04;2.87;;;2.60;;
12163;SDS011;6145;50.192;10.064;2023-11-21T23:14:35;3.73;;;2.70;;
12163;SDS011;6145;50.192;10.064;2023-11-21T23:17:02;1.57;;;1.47;;
12163;SDS011;6145;50.192;10.064;2023-11-21T23:19:31;3.13;;;2.67;;
12163;SDS011;6145;50.192;10.064;2023-11-21T23:22:05;3.33;;;2.37;;
12163;SDS011;6145;50.192;10.064;2023-11-21T23:24:33;2.37;;;1.73;;
12163;SDS011;6145;50.192;10.064;2023-11-21T23:27:00;2.80;;;2.47;;
12163;SDS011;6145;50.192;10.064;2023-11-21T23:29:30;2.90;;;2.50;;
12163;SDS011;6145;50.192;10.064;2023-11-21T23:31:59;3.00;;;2.30;;
12163;SDS011;6145;50.192;10.064;2023-11-21T23:34:26;2.53;;;2.30;;
12163;SDS011;6145;50.192;10.064;2023-11-21T23:36:53;3.30;;;2.37;;
12163;SDS011;6145;50.192;10.064;2023-11-21T23:39:20;2.70;;;2.40;;
12163;SDS011;6145;50.192;10.064;2023-11-21T23:41:47;1.97;;;1.87;;
12163;SDS011;6145;50.192;10.064;2023-11-21T23:44:14;3.63;;;2.47;;
12163;SDS011;6145;50.192;10.064;2023-11-21T23:46:41;3.23;;;2.60;;
12163;SDS011;6145;50.192;10.064;2023-11-21T23:49:14;3.03;;;2.53;;
12163;SDS011;6145;50.192;10.064;2023-11-21T23:51:43;2.80;;;2.37;;
12163;SDS011;6145;50.192;10.064;2023-11-21T23:57:03;3.30;;;2.30;;
12163;SDS011;6145;50.192;10.064;2023-11-21T23:59:31;2.30;;;1.87;;
